Willow Springs, IL (60480)

4:22 PM CST en Enero 29, 2015 (GMT -0600)
Palos Hills | Change Station
CLOSE
Current Station
Estación meteorológica personal
Location: Palos Hills, IL
Altura: 712 ft
Estaciones meteorológicas cercanas

Alt 712 ft 41.71 °N, 87.84 °W | Updated 5 minutes ago

Nublado
Nublado
34.6 ° F
Sensación térmica 31 ° F
N
4.0
Viento Variable Viento desde ONO
Gusts 11.0 mph

Hoy
Alta -- | Baja -- ° F
--% Posibilidad de precipitaciones
Ayer
Alta -- | Baja -- ° F
Precip. -- pul
7:06 AM 5:02 PM
Gibosa creciente, 77% visible
Presión 30.09 pul
Visibilidad 10.0 Millas
Nubes Nublado 2300 ft
Vientos helados 31 ° F
Punto de rocío 29 ° F
Humedad 80%
Precipitaciones -999.00 pul
Espesor de la nieve No disponible.
UV 0 de una escala de 12
Polen .10 de una escala de 12
Calidad del aire No disponible.
Flu Activity No disponible.
METAR KMDW 292153Z 32013KT 10SM OVC023 02/M03 A3006 RMK AO2 SLP189 T00221028

More Conditions Fewer Conditions

Presión 30.09 pul
Visibilidad 10.0 Millas
Nubes Nublado 2300 ft
Vientos helados 31 ° F
Punto de rocío 29 ° F
Humedad 80%
Precipitaciones -999.00 pul
Espesor de la nieve No disponible.
UV 0 de una escala de 12
Polen .10 de una escala de 12
Calidad del aire No disponible.
Flu Activity No disponible.
METAR KMDW 292153Z 32013KT 10SM OVC023 02/M03 A3006 RMK AO2 SLP189 T00221028

More Conditions Fewer Conditions

10-Day Weather Forecast

Almanac

Astronomía

Jan. 29, 2015 Salida Puesta
Hora real
Crepúsculo civil
Crepúsculo náutico
Crepúsculo astronómico
Luna
Horas de luz
Horas de luz
Tomorrow will be .
, % of the Moon is Illuminated

Extremos de hoy

Máximos del estado Bajos del estado

Community

WunderPhotos

Upload Photos

1,791,629 ¡fotos cargadas!

WunderBlogs® & News

Nearby

Calidad del aire

  Calidad del aire Índice AQ Contaminante
Not available.

Grosos de nieve

Estación Profundido Altura

Actividad de terremotos

Ciudad Distance Mag. Tiempo y dato
Magnitud mínima muestra es 2,5.

Temperaturas de aguas costeras

Lugar Temperatura

Estaciones meteorológicas cercanas